sensor_id;sensor_type;location;lat;lon;timestamp;pressure;altitude;pressure_sealevel;temperature;humidity
68994;BME280;56054;50.968;5.816;2023-03-14T06:45:13;98155.16;;;9.52;100.00
68994;BME280;56054;50.968;5.816;2023-03-14T06:48:27;98169.91;;;9.55;100.00
68994;BME280;56054;50.968;5.816;2023-03-14T06:51:35;98164.72;;;9.55;100.00
68994;BME280;56054;50.968;5.816;2023-03-14T06:54:45;98160.53;;;9.60;100.00
68994;BME280;56054;50.968;5.816;2023-03-14T06:57:56;98161.53;;;9.65;100.00
68994;BME280;56054;50.968;5.816;2023-03-14T07:01:04;98175.47;;;9.69;100.00
68994;BME280;56054;50.968;5.816;2023-03-14T07:04:17;98179.97;;;9.76;100.00
68994;BME280;56054;50.968;5.816;2023-03-14T07:07:24;98172.31;;;9.80;100.00
68994;BME280;56054;50.968;5.816;2023-03-14T07:10:36;98183.56;;;9.82;100.00
68994;BME280;56054;50.968;5.816;2023-03-14T07:13:51;98171.50;;;9.84;100.00
68994;BME280;56054;50.968;5.816;2023-03-14T07:16:59;98177.63;;;9.86;100.00
68994;BME280;56054;50.968;5.816;2023-03-14T07:20:07;98182.06;;;9.92;100.00
68994;BME280;56054;50.968;5.816;2023-03-14T07:23:14;98181.28;;;9.95;100.00
68994;BME280;56054;50.968;5.816;2023-03-14T07:26:23;98185.69;;;9.99;100.00
68994;BME280;56054;50.968;5.816;2023-03-14T07:29:57;98190.25;;;10.07;100.00
68994;BME280;56054;50.968;5.816;2023-03-14T07:33:05;98191.31;;;10.16;100.00
68994;BME280;56054;50.968;5.816;2023-03-14T07:36:12;98200.00;;;10.18;100.00
68994;BME280;56054;50.968;5.816;2023-03-14T07:39:21;98203.53;;;10.21;100.00
68994;BME280;56054;50.968;5.816;2023-03-14T07:42:37;98215.72;;;10.24;100.00
68994;BME280;56054;50.968;5.816;2023-03-14T07:45:59;98219.16;;;10.23;100.00
68994;BME280;56054;50.968;5.816;2023-03-14T07:49:06;98226.81;;;10.18;100.00
68994;BME280;56054;50.968;5.816;2023-03-14T07:52:14;98230.41;;;10.23;100.00
68994;BME280;56054;50.968;5.816;2023-03-14T07:55:21;98249.44;;;10.24;100.00
68994;BME280;56054;50.968;5.816;2023-03-14T07:58:28;98232.88;;;10.19;100.00
68994;BME280;56054;50.968;5.816;2023-03-14T08:01:35;98240.66;;;10.17;100.00
68994;BME280;56054;50.968;5.816;2023-03-14T08:04:42;98251.03;;;10.17;100.00
68994;BME280;56054;50.968;5.816;2023-03-14T08:07:49;98258.69;;;10.13;100.00
68994;BME280;56054;50.968;5.816;2023-03-14T08:11:02;98277.69;;;10.12;100.00
68994;BME280;56054;50.968;5.816;2023-03-14T08:14:10;98281.94;;;10.08;100.00
68994;BME280;56054;50.968;5.816;2023-03-14T08:17:17;98282.78;;;10.08;100.00
68994;BME280;56054;50.968;5.816;2023-03-14T08:20:27;98282.59;;;10.01;100.00
68994;BME280;56054;50.968;5.816;2023-03-14T08:23:45;98303.97;;;9.91;100.00
68994;BME280;56054;50.968;5.816;2023-03-14T08:26:52;98358.34;;;9.57;100.00
68994;BME280;56054;50.968;5.816;2023-03-14T08:29:59;98371.41;;;9.03;100.00
68994;BME280;56054;50.968;5.816;2023-03-14T08:33:32;98388.66;;;9.03;100.00
68994;BME280;56054;50.968;5.816;2023-03-14T08:36:39;98419.28;;;8.89;100.00
68994;BME280;56054;50.968;5.816;2023-03-14T08:40:12;98422.25;;;8.74;100.00
68994;BME280;56054;50.968;5.816;2023-03-14T08:43:19;98422.47;;;8.54;100.00
68994;BME280;56054;50.968;5.816;2023-03-14T08:46:26;98456.50;;;8.41;100.00
68994;BME280;56054;50.968;5.816;2023-03-14T08:49:33;98454.84;;;8.43;100.00
68994;BME280;56054;50.968;5.816;2023-03-14T08:52:41;98467.22;;;8.28;100.00
68994;BME280;56054;50.968;5.816;2023-03-14T08:55:54;98484.19;;;8.20;100.00
68994;BME280;56054;50.968;5.816;2023-03-14T08:59:01;98508.81;;;8.10;100.00
68994;BME280;56054;50.968;5.816;2023-03-14T09:02:17;98510.75;;;8.15;100.00
68994;BME280;56054;50.968;5.816;2023-03-14T09:05:24;98535.50;;;8.09;100.00
68994;BME280;56054;50.968;5.816;2023-03-14T09:08:36;98547.38;;;8.04;100.00
68994;BME280;56054;50.968;5.816;2023-03-14T09:11:44;98555.31;;;8.08;100.00
68994;BME280;56054;50.968;5.816;2023-03-14T09:14:51;98569.09;;;8.07;100.00
68994;BME280;56054;50.968;5.816;2023-03-14T09:17:58;98584.47;;;8.04;100.00
68994;BME280;56054;50.968;5.816;2023-03-14T09:21:05;98600.69;;;8.23;100.00
68994;BME280;56054;50.968;5.816;2023-03-14T09:24:12;98602.59;;;8.27;100.00
68994;BME280;56054;50.968;5.816;2023-03-14T09:27:19;98612.09;;;8.28;100.00
68994;BME280;56054;50.968;5.816;2023-03-14T09:30:26;98615.44;;;8.25;100.00
68994;BME280;56054;50.968;5.816;2023-03-14T09:33:34;98641.03;;;8.18;100.00
68994;BME280;56054;50.968;5.816;2023-03-14T09:36:41;98665.00;;;8.13;100.00
68994;BME280;56054;50.968;5.816;2023-03-14T09:39:48;98669.72;;;8.24;100.00
68994;BME280;56054;50.968;5.816;2023-03-14T09:42:56;98683.94;;;8.12;100.00
68994;BME280;56054;50.968;5.816;2023-03-14T09:46:04;98701.13;;;8.12;100.00
68994;BME280;56054;50.968;5.816;2023-03-14T09:52:36;98717.00;;;8.20;100.00
68994;BME280;56054;50.968;5.816;2023-03-14T09:55:47;98723.22;;;8.25;100.00
68994;BME280;56054;50.968;5.816;2023-03-14T09:59:00;98721.81;;;8.33;100.00
68994;BME280;56054;50.968;5.816;2023-03-14T10:02:34;98743.78;;;8.22;100.00
68994;BME280;56054;50.968;5.816;2023-03-14T10:05:41;98736.84;;;8.00;100.00
68994;BME280;56054;50.968;5.816;2023-03-14T10:08:49;98759.00;;;8.14;100.00
68994;BME280;56054;50.968;5.816;2023-03-14T10:11:57;98775.16;;;8.08;100.00
68994;BME280;56054;50.968;5.816;2023-03-14T10:15:12;98785.34;;;7.84;100.00
68994;BME280;56054;50.968;5.816;2023-03-14T10:18:20;98791.47;;;7.86;100.00
68994;BME280;56054;50.968;5.816;2023-03-14T10:21:29;98812.19;;;8.07;100.00
68994;BME280;56054;50.968;5.816;2023-03-14T10:24:39;98812.19;;;8.07;100.00
68994;BME280;56054;50.968;5.816;2023-03-14T10:27:51;98839.47;;;8.20;100.00
68994;BME280;56054;50.968;5.816;2023-03-14T10:30:58;98837.75;;;8.21;100.00
68994;BME280;56054;50.968;5.816;2023-03-14T10:34:20;98853.38;;;8.24;100.00
68994;BME280;56054;50.968;5.816;2023-03-14T10:37:32;98868.44;;;8.32;100.00
68994;BME280;56054;50.968;5.816;2023-03-14T10:40:41;98872.56;;;8.29;100.00
68994;BME280;56054;50.968;5.816;2023-03-14T10:43:59;98885.38;;;8.26;100.00
68994;BME280;56054;50.968;5.816;2023-03-14T10:47:19;98895.75;;;8.26;100.00
68994;BME280;56054;50.968;5.816;2023-03-14T10:50:31;98897.69;;;8.51;100.00
68994;BME280;56054;50.968;5.816;2023-03-14T10:57:01;98911.22;;;8.65;100.00
68994;BME280;56054;50.968;5.816;2023-03-14T11:00:22;98932.56;;;8.59;100.00
68994;BME280;56054;50.968;5.816;2023-03-14T11:03:32;98934.59;;;8.66;100.00
68994;BME280;56054;50.968;5.816;2023-03-14T11:07:08;98934.91;;;8.74;100.00
68994;BME280;56054;50.968;5.816;2023-03-14T11:10:38;98963.25;;;8.71;100.00
68994;BME280;56054;50.968;5.816;2023-03-14T11:17:47;99005.28;;;8.26;100.00
68994;BME280;56054;50.968;5.816;2023-03-14T11:27:43;99058.84;;;7.36;100.00
68994;BME280;56054;50.968;5.816;2023-03-14T11:30:58;99065.09;;;7.23;100.00
68994;BME280;56054;50.968;5.816;2023-03-14T11:40:32;99094.03;;;7.16;100.00
68994;BME280;56054;50.968;5.816;2023-03-14T11:43:41;99112.56;;;7.25;100.00
68994;BME280;56054;50.968;5.816;2023-03-14T11:47:03;99135.94;;;7.45;100.00
68994;BME280;56054;50.968;5.816;2023-03-14T11:50:19;99126.63;;;7.48;100.00
68994;BME280;56054;50.968;5.816;2023-03-14T11:56:58;99146.59;;;7.51;100.00
68994;BME280;56054;50.968;5.816;2023-03-14T12:00:32;99152.88;;;7.56;100.00
68994;BME280;56054;50.968;5.816;2023-03-14T12:03:44;99155.88;;;7.65;100.00
68994;BME280;56054;50.968;5.816;2023-03-14T12:06:56;99170.47;;;7.63;100.00
68994;BME280;56054;50.968;5.816;2023-03-14T12:10:03;99176.16;;;7.74;100.00
68994;BME280;56054;50.968;5.816;2023-03-14T12:13:13;99177.53;;;7.67;100.00
68994;BME280;56054;50.968;5.816;2023-03-14T12:19:41;99190.78;;;7.74;100.00
68994;BME280;56054;50.968;5.816;2023-03-14T12:22:54;99209.44;;;7.68;100.00
68994;BME280;56054;50.968;5.816;2023-03-14T12:29:16;99240.28;;;6.98;100.00
68994;BME280;56054;50.968;5.816;2023-03-14T12:32:24;99248.69;;;6.62;100.00
68994;BME280;56054;50.968;5.816;2023-03-14T12:38:56;99260.63;;;6.60;100.00
68994;BME280;56054;50.968;5.816;2023-03-14T12:42:17;99262.13;;;6.72;100.00
68994;BME280;56054;50.968;5.816;2023-03-14T12:45:32;99262.47;;;6.94;100.00
68994;BME280;56054;50.968;5.816;2023-03-14T12:48:40;99271.38;;;7.32;100.00
68994;BME280;56054;50.968;5.816;2023-03-14T12:51:47;99272.88;;;7.28;100.00
68994;BME280;56054;50.968;5.816;2023-03-14T12:55:46;99285.03;;;7.29;100.00
68994;BME280;56054;50.968;5.816;2023-03-14T13:02:29;99322.78;;;7.27;100.00
68994;BME280;56054;50.968;5.816;2023-03-14T13:05:59;99333.53;;;6.27;100.00
68994;BME280;56054;50.968;5.816;2023-03-14T13:12:49;99366.03;;;6.08;100.00
68994;BME280;56054;50.968;5.816;2023-03-14T13:15:58;99369.41;;;6.07;100.00
68994;BME280;56054;50.968;5.816;2023-03-14T13:19:33;99376.50;;;6.26;100.00
68994;BME280;56054;50.968;5.816;2023-03-14T13:22:46;99379.38;;;6.16;100.00
68994;BME280;56054;50.968;5.816;2023-03-14T13:25:56;99387.91;;;6.30;100.00
68994;BME280;56054;50.968;5.816;2023-03-14T13:29:21;99386.75;;;6.25;100.00
68994;BME280;56054;50.968;5.816;2023-03-14T13:32:29;99405.53;;;6.22;100.00
68994;BME280;56054;50.968;5.816;2023-03-14T13:35:42;99411.41;;;6.34;100.00
68994;BME280;56054;50.968;5.816;2023-03-14T13:38:58;99427.38;;;6.29;100.00
68994;BME280;56054;50.968;5.816;2023-03-14T13:42:13;99423.66;;;6.83;100.00
68994;BME280;56054;50.968;5.816;2023-03-14T13:45:21;99427.50;;;6.60;100.00
68994;BME280;56054;50.968;5.816;2023-03-14T13:48:45;99440.84;;;6.68;100.00
68994;BME280;56054;50.968;5.816;2023-03-14T13:51:56;99444.84;;;6.62;100.00
68994;BME280;56054;50.968;5.816;2023-03-14T13:55:05;99447.69;;;6.67;100.00
68994;BME280;56054;50.968;5.816;2023-03-14T13:58:32;99467.28;;;6.78;100.00
68994;BME280;56054;50.968;5.816;2023-03-14T14:01:43;99473.50;;;6.82;100.00
68994;BME280;56054;50.968;5.816;2023-03-14T14:04:51;99480.19;;;6.78;100.00
68994;BME280;56054;50.968;5.816;2023-03-14T14:08:12;99484.00;;;6.85;100.00
68994;BME280;56054;50.968;5.816;2023-03-14T14:14:52;99502.31;;;7.04;100.00
68994;BME280;56054;50.968;5.816;2023-03-14T14:18:07;99515.69;;;6.97;100.00
68994;BME280;56054;50.968;5.816;2023-03-14T14:21:17;99526.28;;;7.17;100.00
68994;BME280;56054;50.968;5.816;2023-03-14T14:24:46;99516.72;;;7.31;100.00
68994;BME280;56054;50.968;5.816;2023-03-14T14:27:53;99527.78;;;7.28;100.00
68994;BME280;56054;50.968;5.816;2023-03-14T14:31:15;99545.00;;;7.27;100.00
68994;BME280;56054;50.968;5.816;2023-03-14T14:43:16;99562.16;;;7.42;100.00
68994;BME280;56054;50.968;5.816;2023-03-14T14:46:27;99568.22;;;7.42;100.00
68994;BME280;56054;50.968;5.816;2023-03-14T14:49:37;99589.44;;;7.52;100.00
68994;BME280;56054;50.968;5.816;2023-03-14T14:52:46;99585.59;;;7.45;100.00
68994;BME280;56054;50.968;5.816;2023-03-14T14:55:55;99588.91;;;7.27;100.00
68994;BME280;56054;50.968;5.816;2023-03-14T14:59:04;99594.41;;;7.34;100.00
68994;BME280;56054;50.968;5.816;2023-03-14T15:02:32;99609.91;;;7.34;100.00
68994;BME280;56054;50.968;5.816;2023-03-14T15:05:42;99620.25;;;7.34;100.00
68994;BME280;56054;50.968;5.816;2023-03-14T15:08:49;99630.78;;;7.37;100.00
68994;BME280;56054;50.968;5.816;2023-03-14T15:11:56;99648.78;;;7.50;100.00
68994;BME280;56054;50.968;5.816;2023-03-14T15:15:07;99647.50;;;7.58;100.00
68994;BME280;56054;50.968;5.816;2023-03-14T15:18:18;99666.59;;;7.60;100.00
68994;BME280;56054;50.968;5.816;2023-03-14T15:21:26;99676.75;;;7.57;90.60
68994;BME280;56054;50.968;5.816;2023-03-14T15:24:34;99677.81;;;7.46;76.51
68994;BME280;56054;50.968;5.816;2023-03-14T15:27:41;99683.63;;;7.42;79.02
68994;BME280;56054;50.968;5.816;2023-03-14T15:30:53;99692.97;;;7.40;80.47
68994;BME280;56054;50.968;5.816;2023-03-14T15:34:00;99697.59;;;7.45;85.75
68994;BME280;56054;50.968;5.816;2023-03-14T15:37:15;99709.66;;;7.45;84.87
68994;BME280;56054;50.968;5.816;2023-03-14T15:40:23;99707.94;;;7.31;78.50
68994;BME280;56054;50.968;5.816;2023-03-14T15:43:38;99729.13;;;7.10;78.14
68994;BME280;56054;50.968;5.816;2023-03-14T15:46:45;99735.88;;;7.08;77.86
68994;BME280;56054;50.968;5.816;2023-03-14T15:49:52;99732.91;;;7.02;70.81
68994;BME280;56054;50.968;5.816;2023-03-14T15:52:59;99749.34;;;6.89;65.89
68994;BME280;56054;50.968;5.816;2023-03-14T15:56:09;99744.56;;;6.95;70.12
68994;BME280;56054;50.968;5.816;2023-03-14T15:59:17;99754.31;;;6.86;72.19
68994;BME280;56054;50.968;5.816;2023-03-14T16:02:24;99764.97;;;6.77;70.93
68994;BME280;56054;50.968;5.816;2023-03-14T16:05:31;99775.22;;;6.76;72.36
68994;BME280;56054;50.968;5.816;2023-03-14T16:08:38;99790.69;;;6.62;70.06
68994;BME280;56054;50.968;5.816;2023-03-14T16:11:45;99805.69;;;6.68;71.80
68994;BME280;56054;50.968;5.816;2023-03-14T16:14:52;99797.66;;;6.50;58.94
68994;BME280;56054;50.968;5.816;2023-03-14T16:18:00;99807.50;;;6.42;63.64
68994;BME280;56054;50.968;5.816;2023-03-14T16:21:11;99811.06;;;6.45;62.96
68994;BME280;56054;50.968;5.816;2023-03-14T16:24:18;99804.22;;;6.45;64.91
68994;BME280;56054;50.968;5.816;2023-03-14T16:27:25;99802.53;;;6.46;66.64
68994;BME280;56054;50.968;5.816;2023-03-14T16:30:32;99812.06;;;6.60;70.28
68994;BME280;56054;50.968;5.816;2023-03-14T16:33:39;99815.72;;;6.50;68.41
68994;BME280;56054;50.968;5.816;2023-03-14T16:36:46;99833.72;;;6.49;69.19
68994;BME280;56054;50.968;5.816;2023-03-14T16:39:53;99840.34;;;6.45;71.33
68994;BME280;56054;50.968;5.816;2023-03-14T16:43:08;99842.81;;;6.43;71.57
68994;BME280;56054;50.968;5.816;2023-03-14T16:46:16;99857.03;;;6.37;72.47
68994;BME280;56054;50.968;5.816;2023-03-14T16:49:23;99878.66;;;6.39;74.93
68994;BME280;56054;50.968;5.816;2023-03-14T16:52:30;99880.44;;;6.40;75.02
68994;BME280;56054;50.968;5.816;2023-03-14T16:55:42;99881.22;;;6.26;72.34
68994;BME280;56054;50.968;5.816;2023-03-14T16:58:49;99895.00;;;6.26;72.62
68994;BME280;56054;50.968;5.816;2023-03-14T17:01:56;99897.97;;;6.19;71.94
68994;BME280;56054;50.968;5.816;2023-03-14T17:05:04;99906.56;;;6.06;71.83
68994;BME280;56054;50.968;5.816;2023-03-14T17:08:10;99912.72;;;6.08;71.59
68994;BME280;56054;50.968;5.816;2023-03-14T17:11:17;99926.94;;;6.15;73.78
68994;BME280;56054;50.968;5.816;2023-03-14T17:14:24;99936.78;;;6.34;79.45
68994;BME280;56054;50.968;5.816;2023-03-14T17:17:31;99949.91;;;6.12;75.77
68994;BME280;56054;50.968;5.816;2023-03-14T17:20:39;99954.03;;;5.96;73.29
68994;BME280;56054;50.968;5.816;2023-03-14T17:23:45;99957.44;;;5.95;74.56
68994;BME280;56054;50.968;5.816;2023-03-14T17:26:52;99959.88;;;5.94;75.45
68994;BME280;56054;50.968;5.816;2023-03-14T17:29:59;99984.97;;;5.96;75.23
68994;BME280;56054;50.968;5.816;2023-03-14T17:33:06;99998.00;;;5.86;77.47
68994;BME280;56054;50.968;5.816;2023-03-14T17:36:13;100004.94;;;5.87;76.29
68994;BME280;56054;50.968;5.816;2023-03-14T17:39:20;100017.41;;;5.81;77.05
68994;BME280;56054;50.968;5.816;2023-03-14T17:42:27;100022.22;;;5.88;75.29
68994;BME280;56054;50.968;5.816;2023-03-14T17:45:34;100036.56;;;5.85;77.28
68994;BME280;56054;50.968;5.816;2023-03-14T17:48:46;100047.66;;;5.84;77.08
68994;BME280;56054;50.968;5.816;2023-03-14T17:51:54;100044.75;;;5.79;75.57
68994;BME280;56054;50.968;5.816;2023-03-14T17:55:02;100042.19;;;5.79;78.10
68994;BME280;56054;50.968;5.816;2023-03-14T17:58:19;100055.72;;;5.88;79.76
68994;BME280;56054;50.968;5.816;2023-03-14T18:01:27;100065.53;;;5.69;80.58
68994;BME280;56054;50.968;5.816;2023-03-14T18:04:37;100071.53;;;5.81;80.86
68994;BME280;56054;50.968;5.816;2023-03-14T18:07:44;100081.84;;;5.81;81.54
68994;BME280;56054;50.968;5.816;2023-03-14T18:10:54;100085.47;;;5.60;79.40
68994;BME280;56054;50.968;5.816;2023-03-14T18:14:02;100092.41;;;5.61;79.39
68994;BME280;56054;50.968;5.816;2023-03-14T18:17:12;100100.72;;;5.68;79.69
68994;BME280;56054;50.968;5.816;2023-03-14T18:20:32;100102.28;;;5.66;79.19
68994;BME280;56054;50.968;5.816;2023-03-14T18:23:38;100106.97;;;5.60;79.96
68994;BME280;56054;50.968;5.816;2023-03-14T18:26:47;100120.09;;;5.51;81.23
68994;BME280;56054;50.968;5.816;2023-03-14T18:29:55;100136.00;;;5.57;81.29
68994;BME280;56054;50.968;5.816;2023-03-14T18:33:02;100134.97;;;5.55;81.47
68994;BME280;56054;50.968;5.816;2023-03-14T18:36:10;100140.81;;;5.65;83.08
68994;BME280;56054;50.968;5.816;2023-03-14T18:39:18;100149.31;;;5.40;81.86
68994;BME280;56054;50.968;5.816;2023-03-14T18:42:24;100163.31;;;5.44;81.21
68994;BME280;56054;50.968;5.816;2023-03-14T18:45:31;100160.53;;;5.41;82.26
68994;BME280;56054;50.968;5.816;2023-03-14T18:48:38;100172.41;;;5.50;83.42
68994;BME280;56054;50.968;5.816;2023-03-14T18:51:46;100174.63;;;5.34;83.71
68994;BME280;56054;50.968;5.816;2023-03-14T18:54:54;100176.88;;;5.29;84.22
68994;BME280;56054;50.968;5.816;2023-03-14T18:58:00;100181.38;;;5.32;83.12
68994;BME280;56054;50.968;5.816;2023-03-14T19:01:08;100200.06;;;5.29;82.71
68994;BME280;56054;50.968;5.816;2023-03-14T19:04:22;100197.81;;;5.22;82.74
68994;BME280;56054;50.968;5.816;2023-03-14T19:07:29;100206.97;;;5.19;81.68
68994;BME280;56054;50.968;5.816;2023-03-14T19:11:45;100207.75;;;5.18;82.63
68994;BME280;56054;50.968;5.816;2023-03-14T19:15:18;100207.53;;;5.14;82.25
68994;BME280;56054;50.968;5.816;2023-03-14T19:18:26;100216.47;;;5.08;82.38
68994;BME280;56054;50.968;5.816;2023-03-14T19:21:34;100218.16;;;5.07;83.39
68994;BME280;56054;50.968;5.816;2023-03-14T19:24:42;100223.53;;;5.10;83.86
68994;BME280;56054;50.968;5.816;2023-03-14T19:27:48;100233.63;;;4.97;82.55
68994;BME280;56054;50.968;5.816;2023-03-14T19:30:55;100229.28;;;4.96;81.49
68994;BME280;56054;50.968;5.816;2023-03-14T19:34:02;100238.44;;;4.92;80.66
68994;BME280;56054;50.968;5.816;2023-03-14T19:37:11;100236.78;;;4.93;80.83
68994;BME280;56054;50.968;5.816;2023-03-14T19:40:18;100236.94;;;4.84;80.46
68994;BME280;56054;50.968;5.816;2023-03-14T19:43:32;100251.50;;;4.84;82.31
68994;BME280;56054;50.968;5.816;2023-03-14T19:46:39;100243.06;;;4.75;83.37
68994;BME280;56054;50.968;5.816;2023-03-14T19:49:46;100252.41;;;4.62;82.71
68994;BME280;56054;50.968;5.816;2023-03-14T19:52:58;100256.66;;;4.62;82.40
68994;BME280;56054;50.968;5.816;2023-03-14T19:56:05;100258.34;;;4.61;83.08
68994;BME280;56054;50.968;5.816;2023-03-14T19:59:12;100268.13;;;4.55;83.10
68994;BME280;56054;50.968;5.816;2023-03-14T20:02:21;100268.34;;;4.58;82.48
68994;BME280;56054;50.968;5.816;2023-03-14T20:05:32;100278.41;;;4.55;82.44
68994;BME280;56054;50.968;5.816;2023-03-14T20:08:41;100287.28;;;4.59;81.79
68994;BME280;56054;50.968;5.816;2023-03-14T20:11:48;100289.22;;;4.61;83.01
68994;BME280;56054;50.968;5.816;2023-03-14T20:15:00;100296.66;;;4.58;83.59
68994;BME280;56054;50.968;5.816;2023-03-14T20:18:07;100299.88;;;4.56;83.78
68994;BME280;56054;50.968;5.816;2023-03-14T20:21:15;100307.13;;;4.49;82.93
68994;BME280;56054;50.968;5.816;2023-03-14T20:24:27;100308.53;;;4.46;84.43
68994;BME280;56054;50.968;5.816;2023-03-14T20:27:36;100305.59;;;4.41;84.59
68994;BME280;56054;50.968;5.816;2023-03-14T20:30:45;100309.88;;;4.31;86.26
68994;BME280;56054;50.968;5.816;2023-03-14T20:33:51;100320.41;;;4.34;86.25
68994;BME280;56054;50.968;5.816;2023-03-14T20:37:08;100319.16;;;4.28;86.33
68994;BME280;56054;50.968;5.816;2023-03-14T20:40:15;100324.72;;;4.23;87.04
68994;BME280;56054;50.968;5.816;2023-03-14T20:43:22;100324.09;;;4.15;87.88
68994;BME280;56054;50.968;5.816;2023-03-14T20:46:39;100323.19;;;4.04;86.69
68994;BME280;56054;50.968;5.816;2023-03-14T20:49:52;100327.94;;;4.00;86.78
68994;BME280;56054;50.968;5.816;2023-03-14T20:53:00;100324.13;;;4.05;86.77
68994;BME280;56054;50.968;5.816;2023-03-14T20:56:32;100332.31;;;4.11;87.12
68994;BME280;56054;50.968;5.816;2023-03-14T20:59:39;100330.25;;;4.07;90.27
68994;BME280;56054;50.968;5.816;2023-03-14T21:02:47;100343.38;;;4.10;92.20
68994;BME280;56054;50.968;5.816;2023-03-14T21:05:54;100350.09;;;3.98;93.91
68994;BME280;56054;50.968;5.816;2023-03-14T21:09:00;100349.16;;;3.97;95.61
68994;BME280;56054;50.968;5.816;2023-03-14T21:12:08;100348.69;;;3.81;97.16
68994;BME280;56054;50.968;5.816;2023-03-14T21:15:15;100350.09;;;3.77;98.09
68994;BME280;56054;50.968;5.816;2023-03-14T21:18:21;100355.47;;;3.70;100.00
68994;BME280;56054;50.968;5.816;2023-03-14T21:21:28;100349.59;;;3.61;100.00
68994;BME280;56054;50.968;5.816;2023-03-14T21:24:37;100354.97;;;3.54;100.00
68994;BME280;56054;50.968;5.816;2023-03-14T21:27:45;100362.28;;;3.49;100.00
68994;BME280;56054;50.968;5.816;2023-03-14T21:30:52;100371.38;;;3.46;100.00
68994;BME280;56054;50.968;5.816;2023-03-14T21:33:59;100358.03;;;3.39;100.00
68994;BME280;56054;50.968;5.816;2023-03-14T21:37:07;100362.88;;;3.36;100.00
68994;BME280;56054;50.968;5.816;2023-03-14T21:40:14;100372.25;;;3.36;100.00
68994;BME280;56054;50.968;5.816;2023-03-14T21:43:25;100366.09;;;3.34;100.00
68994;BME280;56054;50.968;5.816;2023-03-14T21:46:32;100367.38;;;3.39;100.00
68994;BME280;56054;50.968;5.816;2023-03-14T21:49:40;100368.31;;;3.39;100.00
68994;BME280;56054;50.968;5.816;2023-03-14T21:52:49;100357.75;;;3.36;100.00
68994;BME280;56054;50.968;5.816;2023-03-14T21:55:57;100364.16;;;3.31;100.00
68994;BME280;56054;50.968;5.816;2023-03-14T21:59:08;100367.91;;;3.25;100.00
68994;BME280;56054;50.968;5.816;2023-03-14T22:02:18;100376.81;;;3.09;100.00
68994;BME280;56054;50.968;5.816;2023-03-14T22:05:26;100388.50;;;3.06;100.00
68994;BME280;56054;50.968;5.816;2023-03-14T22:08:34;100392.22;;;3.09;100.00
68994;BME280;56054;50.968;5.816;2023-03-14T22:11:42;100400.97;;;3.11;100.00
68994;BME280;56054;50.968;5.816;2023-03-14T22:14:48;100397.28;;;3.18;100.00
68994;BME280;56054;50.968;5.816;2023-03-14T22:18:22;100398.53;;;3.13;100.00
68994;BME280;56054;50.968;5.816;2023-03-14T22:21:30;100391.59;;;3.12;100.00
68994;BME280;56054;50.968;5.816;2023-03-14T22:24:47;100393.53;;;3.14;100.00
68994;BME280;56054;50.968;5.816;2023-03-14T22:28:43;100394.53;;;3.06;100.00
68994;BME280;56054;50.968;5.816;2023-03-14T22:31:52;100387.72;;;3.07;100.00
68994;BME280;56054;50.968;5.816;2023-03-14T22:34:59;100397.47;;;3.00;100.00
68994;BME280;56054;50.968;5.816;2023-03-14T22:38:05;100398.78;;;3.06;100.00
68994;BME280;56054;50.968;5.816;2023-03-14T22:41:13;100403.50;;;3.01;100.00
68994;BME280;56054;50.968;5.816;2023-03-14T22:44:20;100404.81;;;3.06;100.00
68994;BME280;56054;50.968;5.816;2023-03-14T22:47:33;100400.72;;;3.08;100.00
68994;BME280;56054;50.968;5.816;2023-03-14T22:50:41;100413.53;;;3.08;100.00
68994;BME280;56054;50.968;5.816;2023-03-14T22:53:53;100412.91;;;3.11;100.00
68994;BME280;56054;50.968;5.816;2023-03-14T22:57:01;100414.28;;;3.07;100.00
68994;BME280;56054;50.968;5.816;2023-03-14T23:00:08;100418.81;;;3.10;100.00
68994;BME280;56054;50.968;5.816;2023-03-14T23:03:16;100414.19;;;3.06;100.00
68994;BME280;56054;50.968;5.816;2023-03-14T23:06:22;100410.72;;;3.05;100.00
68994;BME280;56054;50.968;5.816;2023-03-14T23:13:01;100413.41;;;3.07;100.00
68994;BME280;56054;50.968;5.816;2023-03-14T23:16:11;100409.53;;;3.02;100.00
68994;BME280;56054;50.968;5.816;2023-03-14T23:19:18;100417.63;;;3.06;100.00
68994;BME280;56054;50.968;5.816;2023-03-14T23:22:25;100423.97;;;3.10;100.00
68994;BME280;56054;50.968;5.816;2023-03-14T23:25:33;100418.53;;;3.07;100.00
68994;BME280;56054;50.968;5.816;2023-03-14T23:28:41;100426.75;;;3.03;100.00
68994;BME280;56054;50.968;5.816;2023-03-14T23:31:48;100428.47;;;3.12;100.00
68994;BME280;56054;50.968;5.816;2023-03-14T23:35:00;100435.81;;;2.99;100.00
68994;BME280;56054;50.968;5.816;2023-03-14T23:38:33;100426.88;;;3.04;100.00
68994;BME280;56054;50.968;5.816;2023-03-14T23:41:40;100420.44;;;2.99;100.00
68994;BME280;56054;50.968;5.816;2023-03-14T23:44:54;100415.44;;;3.00;100.00
68994;BME280;56054;50.968;5.816;2023-03-14T23:48:02;100427.22;;;2.98;100.00
68994;BME280;56054;50.968;5.816;2023-03-14T23:51:10;100431.09;;;3.04;100.00
68994;BME280;56054;50.968;5.816;2023-03-14T23:54:17;100415.56;;;3.02;100.00
68994;BME280;56054;50.968;5.816;2023-03-14T23:57:27;100418.28;;;3.04;100.00
